createdAt,value
2023-06-04T00:00:20.221Z,17.02
2023-06-04T00:01:20.185Z,17.01
2023-06-04T00:02:20.200Z,16.85
2023-06-04T00:03:20.347Z,16.77
2023-06-04T00:04:20.246Z,16.71
2023-06-04T00:05:20.142Z,16.65
2023-06-04T00:06:20.160Z,16.64
2023-06-04T00:07:20.145Z,16.57
2023-06-04T00:08:20.160Z,16.53
2023-06-04T00:09:20.173Z,16.55
2023-06-04T00:10:20.156Z,16.44
2023-06-04T00:11:20.147Z,16.41
2023-06-04T00:12:20.109Z,16.43
2023-06-04T00:13:20.147Z,16.47
2023-06-04T00:14:20.094Z,16.45
2023-06-04T00:15:20.112Z,16.45
2023-06-04T00:16:20.094Z,16.45
2023-06-04T00:17:20.071Z,16.41
2023-06-04T00:18:20.093Z,16.45
2023-06-04T00:19:20.083Z,16.49
2023-06-04T00:20:20.054Z,16.54
2023-06-04T00:21:20.040Z,16.59
2023-06-04T00:22:20.026Z,16.60
2023-06-04T00:23:20.031Z,16.63
2023-06-04T00:24:20.050Z,16.63
2023-06-04T00:25:20.041Z,16.60
2023-06-04T00:26:20.035Z,16.61
2023-06-04T00:27:20.001Z,16.62
2023-06-04T00:28:20.008Z,16.54
2023-06-04T00:29:19.974Z,16.54
2023-06-04T00:30:20.014Z,16.54
2023-06-04T00:31:19.992Z,16.51
2023-06-04T00:32:19.954Z,16.50
2023-06-04T00:33:20.040Z,16.50
2023-06-04T00:34:20.028Z,16.49
2023-06-04T00:35:20.093Z,16.48
2023-06-04T00:36:20.121Z,16.45
2023-06-04T00:37:20.108Z,16.47
2023-06-04T00:38:20.184Z,16.47
2023-06-04T00:39:20.215Z,16.46
2023-06-04T00:40:20.245Z,16.38
2023-06-04T00:41:20.260Z,16.38
2023-06-04T00:42:20.325Z,16.39
2023-06-04T00:43:20.339Z,16.38
2023-06-04T00:44:20.299Z,16.38
2023-06-04T00:45:20.358Z,16.36
2023-06-04T00:46:20.480Z,16.35
2023-06-04T00:47:20.403Z,16.29
2023-06-04T00:48:20.381Z,16.31
2023-06-04T00:49:20.423Z,16.33
2023-06-04T00:50:20.497Z,16.35
2023-06-04T00:51:20.468Z,16.34
2023-06-04T00:52:20.564Z,16.34
2023-06-04T00:53:20.549Z,16.31
2023-06-04T00:54:20.629Z,16.22
2023-06-04T00:55:20.643Z,16.25
2023-06-04T00:56:20.689Z,16.23
2023-06-04T00:57:20.713Z,16.23
2023-06-04T00:58:20.724Z,16.26
2023-06-04T00:59:20.716Z,16.21
2023-06-04T01:00:20.758Z,16.19
2023-06-04T01:01:20.805Z,16.17
2023-06-04T01:02:20.832Z,16.10
2023-06-04T01:03:20.836Z,16.10
2023-06-04T01:04:20.841Z,16.14
2023-06-04T01:05:20.877Z,16.14
2023-06-04T01:06:20.868Z,16.18
2023-06-04T01:07:22.018Z,16.18
2023-06-04T01:08:20.963Z,16.15
2023-06-04T01:09:20.987Z,16.08
2023-06-04T01:10:20.985Z,16.08
2023-06-04T01:11:21.041Z,16.06
2023-06-04T01:12:21.043Z,16.03
2023-06-04T01:13:21.049Z,16.01
2023-06-04T01:14:21.095Z,16.08
2023-06-04T01:15:21.064Z,16.00
2023-06-04T01:16:21.096Z,16.03
2023-06-04T01:17:21.236Z,15.98
2023-06-04T01:18:21.130Z,15.95
2023-06-04T01:19:21.149Z,15.91
2023-06-04T01:20:21.174Z,15.91
2023-06-04T01:21:21.193Z,15.97
2023-06-04T01:22:21.217Z,15.99
2023-06-04T01:23:21.254Z,15.97
2023-06-04T01:24:21.264Z,15.91
2023-06-04T01:25:21.256Z,15.92
2023-06-04T01:26:21.339Z,15.93
2023-06-04T01:27:21.367Z,15.97
2023-06-04T01:28:21.357Z,15.97
2023-06-04T01:29:21.398Z,15.98
2023-06-04T01:30:21.349Z,16.02
2023-06-04T01:31:21.515Z,16.03
2023-06-04T01:32:21.409Z,15.96
2023-06-04T01:33:21.453Z,15.92
2023-06-04T01:34:21.581Z,15.89
2023-06-04T01:35:21.545Z,15.91
2023-06-04T01:36:21.600Z,15.90
2023-06-04T01:37:21.594Z,15.92
2023-06-04T01:38:21.675Z,15.93
2023-06-04T01:39:21.679Z,15.89
2023-06-04T01:40:21.697Z,15.85
2023-06-04T01:41:21.754Z,15.85
2023-06-04T01:42:21.729Z,15.81
2023-06-04T01:43:21.790Z,15.74
2023-06-04T01:44:23.827Z,15.73
2023-06-04T01:45:21.855Z,15.72
2023-06-04T01:46:21.912Z,15.74
2023-06-04T01:47:21.922Z,15.73
2023-06-04T01:48:21.968Z,15.74
2023-06-04T01:49:21.999Z,15.72
2023-06-04T01:50:22.030Z,15.71
2023-06-04T01:51:22.061Z,15.72
2023-06-04T01:52:22.098Z,15.73
2023-06-04T01:53:22.109Z,15.75
2023-06-04T01:54:22.184Z,15.76
2023-06-04T01:55:22.223Z,15.76
2023-06-04T01:56:22.326Z,15.70
2023-06-04T01:57:22.240Z,15.69
2023-06-04T01:58:22.776Z,15.69
2023-06-04T01:59:22.385Z,15.69
2023-06-04T02:00:22.370Z,15.55
2023-06-04T02:01:22.382Z,15.53
2023-06-04T02:02:22.436Z,15.55
2023-06-04T02:03:22.461Z,15.58
2023-06-04T02:04:22.446Z,15.57
2023-06-04T02:05:22.476Z,15.54
2023-06-04T02:06:22.529Z,15.55
2023-06-04T02:07:22.580Z,15.49
2023-06-04T02:08:22.575Z,15.51
2023-06-04T02:09:22.688Z,15.51
2023-06-04T02:10:22.603Z,15.52
2023-06-04T02:11:22.622Z,15.54
2023-06-04T02:12:22.620Z,15.49
2023-06-04T02:13:22.734Z,15.45
2023-06-04T02:14:22.764Z,15.44
2023-06-04T02:15:22.785Z,15.42
2023-06-04T02:16:22.859Z,15.44
2023-06-04T02:17:22.849Z,15.44
2023-06-04T02:18:22.868Z,15.40
2023-06-04T02:19:22.915Z,15.41
2023-06-04T02:20:22.905Z,15.41
2023-06-04T02:21:22.968Z,15.43
2023-06-04T02:22:23.032Z,15.45
2023-06-04T02:23:23.057Z,15.46
2023-06-04T02:24:23.121Z,15.41
2023-06-04T02:25:23.111Z,15.33
2023-06-04T02:26:23.186Z,15.36
2023-06-04T02:27:24.044Z,15.39
2023-06-04T02:28:23.239Z,15.41
2023-06-04T02:29:23.296Z,15.41
2023-06-04T02:30:23.279Z,15.39
2023-06-04T02:31:23.319Z,15.33
2023-06-04T02:32:23.495Z,15.32
2023-06-04T02:33:23.342Z,15.29
2023-06-04T02:34:23.392Z,15.21
2023-06-04T02:35:23.409Z,15.21
2023-06-04T02:36:23.449Z,15.19
2023-06-04T02:37:23.485Z,15.23
2023-06-04T02:38:23.520Z,15.16
2023-06-04T02:39:23.481Z,15.17
2023-06-04T02:40:23.509Z,15.11
2023-06-04T02:41:23.576Z,15.12
2023-06-04T02:42:23.528Z,15.09
2023-06-04T02:43:23.576Z,15.11
2023-06-04T02:44:24.196Z,15.10
2023-06-04T02:45:23.615Z,15.11
2023-06-04T02:46:23.675Z,15.16
2023-06-04T02:47:23.701Z,15.13
2023-06-04T02:48:23.698Z,15.09
2023-06-04T02:49:23.705Z,15.09
2023-06-04T02:50:23.813Z,14.99
2023-06-04T02:51:23.828Z,15.02
2023-06-04T02:52:23.822Z,14.96
2023-06-04T02:53:23.847Z,14.92
2023-06-04T02:54:23.911Z,14.89
2023-06-04T02:55:23.928Z,14.93
2023-06-04T02:56:23.950Z,14.97
2023-06-04T02:57:23.985Z,14.95
2023-06-04T02:58:24.032Z,14.94
2023-06-04T02:59:24.050Z,14.93
2023-06-04T03:00:24.056Z,14.94
2023-06-04T03:01:24.126Z,14.98
2023-06-04T03:02:24.094Z,14.96
2023-06-04T03:03:24.164Z,14.98
2023-06-04T03:04:24.208Z,15.00
2023-06-04T03:05:24.275Z,15.02
2023-06-04T03:06:24.293Z,15.04
2023-06-04T03:07:24.342Z,14.98
2023-06-04T03:08:24.417Z,14.96
2023-06-04T03:09:24.383Z,14.91
2023-06-04T03:10:24.415Z,14.93
2023-06-04T03:11:24.452Z,14.94
2023-06-04T03:12:24.465Z,14.99
2023-06-04T03:13:24.481Z,15.02
2023-06-04T03:14:24.460Z,15.01
2023-06-04T03:15:24.477Z,15.04
2023-06-04T03:16:24.606Z,15.02
2023-06-04T03:17:24.544Z,14.91
2023-06-04T03:18:24.538Z,14.87
2023-06-04T03:19:24.642Z,14.82
2023-06-04T03:20:24.694Z,14.80
2023-06-04T03:21:24.647Z,14.85
2023-06-04T03:22:24.642Z,14.86
2023-06-04T03:23:24.737Z,14.89
2023-06-04T03:24:24.748Z,14.89
2023-06-04T03:25:24.760Z,14.83
2023-06-04T03:26:24.755Z,14.86
2023-06-04T03:27:24.779Z,14.87
2023-06-04T03:28:24.782Z,14.90
2023-06-04T03:29:24.794Z,14.93
2023-06-04T03:30:24.812Z,14.93
2023-06-04T03:31:24.862Z,14.82
2023-06-04T03:32:24.880Z,14.76
2023-06-04T03:33:24.860Z,14.80
2023-06-04T03:34:24.917Z,14.79
2023-06-04T03:35:24.915Z,14.81
2023-06-04T03:36:24.890Z,14.80
2023-06-04T03:37:25.001Z,14.85
2023-06-04T03:38:24.954Z,14.90
2023-06-04T03:39:24.962Z,14.91
2023-06-04T03:40:24.966Z,14.90
2023-06-04T03:41:24.965Z,14.91
2023-06-04T03:42:24.987Z,14.88
2023-06-04T03:43:25.033Z,14.81
2023-06-04T03:44:25.041Z,14.75
2023-06-04T03:45:25.042Z,14.78
2023-06-04T03:46:25.093Z,14.83
2023-06-04T03:47:25.147Z,14.77
2023-06-04T03:48:25.118Z,14.80
2023-06-04T03:49:25.125Z,14.84
2023-06-04T03:50:25.152Z,14.86
2023-06-04T03:51:25.198Z,14.86
2023-06-04T03:52:25.202Z,14.88
2023-06-04T03:53:25.263Z,14.88
2023-06-04T03:54:25.258Z,14.90
2023-06-04T03:55:25.298Z,14.90
2023-06-04T03:56:25.323Z,14.94
2023-06-04T03:57:25.328Z,14.93
2023-06-04T03:58:25.341Z,14.96
2023-06-04T03:59:25.411Z,14.98
2023-06-04T04:00:25.405Z,14.98
2023-06-04T04:01:25.411Z,14.92
2023-06-04T04:02:25.687Z,14.96
2023-06-04T04:03:25.602Z,14.96
2023-06-04T04:04:25.584Z,14.99
2023-06-04T04:05:25.552Z,14.95
2023-06-04T04:06:25.600Z,14.88
2023-06-04T04:07:25.591Z,14.89
2023-06-04T04:08:25.662Z,14.93
2023-06-04T04:09:25.696Z,14.97
2023-06-04T04:10:25.784Z,14.98
2023-06-04T04:11:25.819Z,14.94
2023-06-04T04:12:25.856Z,14.91
2023-06-04T04:13:25.908Z,14.95
2023-06-04T04:14:25.915Z,15.00
2023-06-04T04:15:25.978Z,15.05
2023-06-04T04:16:26.063Z,15.11
2023-06-04T04:17:26.022Z,15.11
2023-06-04T04:18:25.993Z,15.13
2023-06-04T04:19:26.047Z,15.15
2023-06-04T04:20:26.075Z,15.25
2023-06-04T04:21:26.130Z,15.36
2023-06-04T04:22:26.184Z,15.48
2023-06-04T04:23:26.204Z,15.52
2023-06-04T04:24:26.239Z,15.61
2023-06-04T04:25:26.238Z,15.71
2023-06-04T04:26:26.244Z,15.80
2023-06-04T04:27:26.267Z,15.82
2023-06-04T04:28:26.262Z,15.89
2023-06-04T04:29:26.259Z,15.86
2023-06-04T04:30:26.289Z,15.87
2023-06-04T04:31:26.364Z,15.96
2023-06-04T04:32:26.369Z,16.04
2023-06-04T04:33:26.353Z,16.10
2023-06-04T04:34:26.363Z,16.15
2023-06-04T04:35:26.419Z,16.07
2023-06-04T04:36:26.432Z,16.10
2023-06-04T04:37:26.485Z,16.21
2023-06-04T04:38:26.455Z,16.29
2023-06-04T04:39:26.549Z,16.38
2023-06-04T04:40:26.648Z,16.44
2023-06-04T04:41:26.625Z,16.53
2023-06-04T04:42:26.696Z,16.60
2023-06-04T04:43:26.722Z,16.63
2023-06-04T04:44:26.748Z,16.71
2023-06-04T04:45:26.735Z,16.78
2023-06-04T04:46:26.795Z,16.90
2023-06-04T04:47:26.800Z,16.90
2023-06-04T04:48:26.786Z,16.97
2023-06-04T04:49:26.861Z,17.01
2023-06-04T04:50:26.919Z,17.02
2023-06-04T04:51:26.913Z,17.07
2023-06-04T04:52:26.979Z,17.21
2023-06-04T04:53:27.002Z,17.35
2023-06-04T04:54:27.018Z,17.53
2023-06-04T04:55:27.033Z,17.64
2023-06-04T04:56:27.108Z,17.90
2023-06-04T04:57:27.078Z,18.08
2023-06-04T04:58:27.180Z,18.14
2023-06-04T04:59:27.165Z,18.27
2023-06-04T05:00:27.195Z,18.42
2023-06-04T05:01:27.302Z,18.56
2023-06-04T05:02:27.334Z,18.66
2023-06-04T05:03:27.277Z,18.68
2023-06-04T05:04:27.422Z,18.72
2023-06-04T05:05:27.374Z,18.85
2023-06-04T05:06:27.388Z,19.05
2023-06-04T05:07:27.414Z,19.25
2023-06-04T05:08:27.474Z,19.15
2023-06-04T05:09:27.521Z,19.25
2023-06-04T05:10:27.542Z,19.23
2023-06-04T05:11:27.495Z,19.27
2023-06-04T05:12:27.512Z,19.48
2023-06-04T05:13:27.597Z,19.64
2023-06-04T05:14:27.601Z,19.69
2023-06-04T05:15:27.893Z,19.78
2023-06-04T05:16:27.694Z,19.85
2023-06-04T05:17:27.695Z,19.83
2023-06-04T05:18:27.720Z,19.65
2023-06-04T05:19:27.801Z,19.58
2023-06-04T05:20:27.740Z,19.57
2023-06-04T05:21:27.803Z,19.54
2023-06-04T05:22:27.811Z,19.31
2023-06-04T05:23:27.832Z,19.21
2023-06-04T05:24:27.872Z,19.12
2023-06-04T05:25:27.841Z,19.13
2023-06-04T05:26:27.876Z,19.23
2023-06-04T05:27:27.874Z,19.28
2023-06-04T05:28:27.895Z,19.48
2023-06-04T05:29:27.955Z,19.60
2023-06-04T05:30:27.959Z,19.71
2023-06-04T05:31:28.024Z,19.79
2023-06-04T05:32:28.049Z,19.58
2023-06-04T05:33:28.003Z,19.67
2023-06-04T05:34:28.013Z,19.73
2023-06-04T05:35:28.031Z,19.63
2023-06-04T05:36:28.052Z,19.78
2023-06-04T05:37:28.068Z,19.99
2023-06-04T05:38:28.066Z,20.20
2023-06-04T05:39:28.080Z,20.29
2023-06-04T05:40:28.137Z,20.43
2023-06-04T05:41:28.186Z,20.71
2023-06-04T05:42:28.210Z,20.81
2023-06-04T05:43:28.251Z,20.82
2023-06-04T05:44:28.268Z,20.57
2023-06-04T05:45:28.267Z,20.65
2023-06-04T05:46:28.392Z,20.47
2023-06-04T05:47:28.449Z,20.36
2023-06-04T05:48:28.402Z,20.30
2023-06-04T05:49:28.402Z,20.24
2023-06-04T05:50:28.387Z,20.51
2023-06-04T05:51:28.373Z,20.44
2023-06-04T05:52:28.433Z,20.44
2023-06-04T05:53:28.632Z,20.47
2023-06-04T05:54:28.483Z,20.47
2023-06-04T05:55:28.496Z,20.76
2023-06-04T05:56:28.560Z,21.10
2023-06-04T05:57:28.561Z,21.30
2023-06-04T05:58:28.646Z,21.37
2023-06-04T05:59:28.689Z,21.18
2023-06-04T06:00:28.656Z,21.32
2023-06-04T06:01:28.674Z,21.41
2023-06-04T06:02:28.776Z,21.49
2023-06-04T06:03:28.903Z,21.44
2023-06-04T06:04:28.878Z,21.58
2023-06-04T06:05:28.824Z,21.67
2023-06-04T06:06:28.889Z,21.88
2023-06-04T06:07:28.880Z,22.14
2023-06-04T06:08:28.877Z,21.93
2023-06-04T06:09:28.952Z,21.62
2023-06-04T06:10:28.972Z,21.73
2023-06-04T06:11:29.028Z,21.91
2023-06-04T06:12:29.077Z,21.92
2023-06-04T06:13:29.088Z,21.96
2023-06-04T06:14:29.092Z,22.02
2023-06-04T06:15:29.136Z,22.16
2023-06-04T06:16:29.218Z,22.19
2023-06-04T06:17:29.246Z,21.81
2023-06-04T06:18:29.230Z,21.68
2023-06-04T06:19:29.227Z,21.56
2023-06-04T06:20:29.279Z,21.73
2023-06-04T06:21:29.277Z,21.76
2023-06-04T06:22:29.297Z,21.85
2023-06-04T06:23:29.341Z,21.62
2023-06-04T06:24:29.370Z,21.83
2023-06-04T06:25:29.373Z,22.18
2023-06-04T06:26:29.408Z,22.39
2023-06-04T06:27:29.419Z,22.57
2023-06-04T06:28:29.497Z,22.99
2023-06-04T06:29:29.498Z,23.18
2023-06-04T06:30:29.584Z,23.36
2023-06-04T06:31:29.621Z,23.23
2023-06-04T06:32:29.589Z,23.54
2023-06-04T06:33:29.638Z,24.02
2023-06-04T06:34:29.645Z,24.27
2023-06-04T06:35:30.107Z,24.63
2023-06-04T06:36:29.718Z,24.65
2023-06-04T06:37:29.713Z,24.87
2023-06-04T06:38:29.778Z,25.19
2023-06-04T06:39:29.766Z,25.33
2023-06-04T06:40:29.827Z,25.69
2023-06-04T06:41:29.891Z,25.88
2023-06-04T06:42:29.946Z,25.89
2023-06-04T06:43:29.965Z,26.05
2023-06-04T06:44:30.063Z,26.30
2023-06-04T06:45:30.077Z,26.14
2023-06-04T06:46:30.106Z,26.07
2023-06-04T06:47:30.143Z,26.31
2023-06-04T06:48:30.168Z,26.46
2023-06-04T06:49:30.206Z,26.73
2023-06-04T06:50:30.258Z,27.01
2023-06-04T06:51:30.263Z,27.25
2023-06-04T06:52:31.569Z,27.09
2023-06-04T06:53:30.330Z,27.14
2023-06-04T06:54:30.314Z,26.54
2023-06-04T06:55:30.289Z,27.15
2023-06-04T06:56:30.297Z,27.71
2023-06-04T06:57:30.307Z,27.72
2023-06-04T06:58:30.321Z,27.63
2023-06-04T06:59:30.320Z,27.48
2023-06-04T07:00:30.329Z,27.00
2023-06-04T07:01:30.357Z,27.21
2023-06-04T07:02:30.349Z,27.54
2023-06-04T07:03:30.285Z,28.12
2023-06-04T07:04:30.236Z,28.57
2023-06-04T07:05:30.259Z,28.87
2023-06-04T07:06:30.221Z,28.51
2023-06-04T07:07:30.208Z,28.37
2023-06-04T07:08:30.235Z,28.08
2023-06-04T07:09:30.237Z,28.29
2023-06-04T07:10:30.185Z,28.35
2023-06-04T07:11:30.188Z,27.75
2023-06-04T07:12:30.203Z,27.81
2023-06-04T07:13:30.140Z,27.37
2023-06-04T07:14:30.166Z,27.31
2023-06-04T07:15:30.177Z,27.35
2023-06-04T07:16:30.226Z,27.57
2023-06-04T07:17:30.157Z,27.71
2023-06-04T07:18:30.141Z,27.36
2023-06-04T07:19:30.147Z,27.57
2023-06-04T07:20:30.140Z,27.69
2023-06-04T07:21:30.100Z,27.75
2023-06-04T07:22:30.086Z,28.00
2023-06-04T07:23:30.182Z,27.53
2023-06-04T07:24:30.115Z,27.58
2023-06-04T07:25:30.075Z,27.33
2023-06-04T07:26:31.889Z,27.09
2023-06-04T07:27:30.082Z,26.15
2023-06-04T07:28:30.107Z,25.10
2023-06-04T07:29:30.072Z,25.02
2023-06-04T07:30:30.044Z,25.26
2023-06-04T07:31:30.080Z,25.77
2023-06-04T07:32:30.060Z,26.24
2023-06-04T07:33:30.739Z,26.52
2023-06-04T07:34:30.042Z,25.93
2023-06-04T07:35:30.033Z,25.69
2023-06-04T07:36:30.002Z,25.46
2023-06-04T07:37:30.003Z,25.74
2023-06-04T07:38:30.020Z,25.85
2023-06-04T07:39:30.075Z,25.87
2023-06-04T07:40:29.971Z,26.42
2023-06-04T07:41:30.023Z,26.72
2023-06-04T07:42:29.995Z,27.32
2023-06-04T07:43:29.936Z,27.61
2023-06-04T07:44:29.968Z,27.55
2023-06-04T07:45:30.907Z,27.83
2023-06-04T07:46:30.022Z,28.18
2023-06-04T07:47:29.995Z,28.35
2023-06-04T07:48:29.928Z,28.50
2023-06-04T07:49:29.979Z,28.82
2023-06-04T07:50:29.932Z,29.13
2023-06-04T07:51:29.874Z,29.36
2023-06-04T07:52:29.913Z,28.96
2023-06-04T07:53:29.894Z,28.81
2023-06-04T07:54:29.915Z,28.76
2023-06-04T07:55:29.878Z,28.51
2023-06-04T07:56:29.879Z,28.60
2023-06-04T07:57:29.896Z,29.01
2023-06-04T07:58:29.895Z,28.75
2023-06-04T07:59:29.929Z,28.67
2023-06-04T08:00:29.914Z,28.39
2023-06-04T08:01:29.915Z,28.22
2023-06-04T08:02:30.042Z,28.64
2023-06-04T08:03:30.119Z,29.22
2023-06-04T08:04:30.121Z,29.48
2023-06-04T08:05:30.088Z,29.26
2023-06-04T08:06:30.094Z,29.19
2023-06-04T08:07:30.156Z,29.26
2023-06-04T08:08:30.160Z,29.43
2023-06-04T08:09:30.206Z,29.59
2023-06-04T08:10:30.190Z,29.88
2023-06-04T08:11:30.228Z,29.60
2023-06-04T08:12:30.328Z,29.61
2023-06-04T08:13:30.354Z,29.79
2023-06-04T08:14:30.304Z,29.41
2023-06-04T08:15:30.406Z,29.08
2023-06-04T08:16:30.434Z,29.36
2023-06-04T08:17:30.402Z,29.53
2023-06-04T08:18:30.440Z,29.74
2023-06-04T08:19:30.417Z,29.95
2023-06-04T08:20:30.460Z,30.12
2023-06-04T08:21:30.492Z,29.92
2023-06-04T08:22:30.518Z,29.80
2023-06-04T08:23:30.565Z,29.82
2023-06-04T08:24:30.574Z,30.14
2023-06-04T08:25:30.600Z,30.44
2023-06-04T08:26:30.668Z,30.62
2023-06-04T08:27:30.674Z,30.71
2023-06-04T08:28:30.728Z,30.54
2023-06-04T08:29:30.755Z,30.23
2023-06-04T08:30:30.733Z,29.96
2023-06-04T08:31:30.822Z,30.14
2023-06-04T08:32:30.883Z,30.18
2023-06-04T08:33:30.893Z,30.68
2023-06-04T08:34:30.959Z,31.05
2023-06-04T08:35:30.939Z,30.82
2023-06-04T08:36:30.940Z,29.64
2023-06-04T08:37:30.973Z,28.67
2023-06-04T08:38:31.024Z,28.89
2023-06-04T08:39:31.066Z,29.33
2023-06-04T08:40:31.029Z,29.78
2023-06-04T08:41:31.127Z,30.26
2023-06-04T08:42:31.209Z,30.84
2023-06-04T08:43:31.167Z,31.27
2023-06-04T08:44:31.247Z,31.52
2023-06-04T08:45:31.275Z,31.35
2023-06-04T08:46:31.318Z,31.59
2023-06-04T08:47:31.347Z,31.73
2023-06-04T08:48:31.334Z,31.25
2023-06-04T08:49:31.378Z,30.02
2023-06-04T08:50:31.505Z,30.09
2023-06-04T08:51:31.445Z,30.70
2023-06-04T08:52:31.464Z,31.41
2023-06-04T08:53:31.573Z,32.10
2023-06-04T08:54:31.563Z,31.83
2023-06-04T08:55:31.611Z,31.92
2023-06-04T08:56:31.564Z,31.93
2023-06-04T08:57:31.645Z,31.06
2023-06-04T08:58:31.643Z,29.73
2023-06-04T08:59:31.658Z,30.19
2023-06-04T09:00:31.649Z,30.72
2023-06-04T09:01:31.768Z,30.28
2023-06-04T09:02:31.819Z,29.50
2023-06-04T09:03:31.787Z,27.89
2023-06-04T09:04:31.779Z,27.59
2023-06-04T09:05:31.821Z,28.66
2023-06-04T09:06:31.917Z,29.64
2023-06-04T09:07:31.911Z,29.83
2023-06-04T09:08:31.911Z,29.85
2023-06-04T09:09:32.010Z,29.62
2023-06-04T09:10:32.077Z,29.71
2023-06-04T09:11:32.093Z,29.91
2023-06-04T09:12:33.316Z,29.93
2023-06-04T09:13:32.116Z,29.55
2023-06-04T09:14:32.122Z,29.85
2023-06-04T09:15:32.169Z,29.86
2023-06-04T09:16:32.232Z,30.22
2023-06-04T09:17:32.235Z,30.72
2023-06-04T09:18:32.248Z,30.12
2023-06-04T09:19:32.261Z,29.46
2023-06-04T09:20:32.321Z,29.76
2023-06-04T09:21:32.309Z,30.10
2023-06-04T09:22:32.316Z,30.03
2023-06-04T09:23:32.414Z,27.45
2023-06-04T09:24:32.425Z,27.58
2023-06-04T09:25:32.465Z,26.17
2023-06-04T09:26:32.508Z,26.93
2023-06-04T09:27:32.468Z,27.76
2023-06-04T09:28:32.495Z,28.00
2023-06-04T09:29:32.519Z,27.98
2023-06-04T09:30:32.588Z,28.45
2023-06-04T09:31:32.709Z,28.66
2023-06-04T09:32:32.690Z,29.33
2023-06-04T09:33:32.661Z,29.62
2023-06-04T09:34:32.718Z,29.71
2023-06-04T09:35:32.725Z,28.88
2023-06-04T09:36:32.710Z,27.86
2023-06-04T09:37:32.767Z,26.95
2023-06-04T09:38:32.783Z,26.63
2023-06-04T09:39:32.836Z,25.60
2023-06-04T09:40:32.845Z,26.44
2023-06-04T09:41:32.856Z,27.51
2023-06-04T09:42:32.860Z,28.27
2023-06-04T09:43:32.922Z,28.56
2023-06-04T09:44:32.933Z,29.00
2023-06-04T09:45:33.223Z,29.61
2023-06-04T09:46:33.149Z,29.82
2023-06-04T09:47:33.032Z,30.11
2023-06-04T09:48:33.006Z,29.85
2023-06-04T09:49:33.071Z,30.21
2023-06-04T09:50:33.123Z,29.21
2023-06-04T09:51:33.160Z,28.97
2023-06-04T09:52:33.169Z,29.41
2023-06-04T09:54:31.138Z,30.19
2023-06-04T09:55:31.109Z,30.67
2023-06-04T09:56:31.108Z,29.73
2023-06-04T09:57:31.098Z,25.99
2023-06-04T09:58:31.078Z,25.83
2023-06-04T09:59:31.107Z,26.11
2023-06-04T10:00:31.077Z,26.73
2023-06-04T10:01:31.235Z,27.18
2023-06-04T10:02:31.095Z,27.78
2023-06-04T10:03:31.164Z,27.18
2023-06-04T10:04:31.038Z,26.50
2023-06-04T10:05:31.065Z,26.21
2023-06-04T10:06:31.025Z,26.28
2023-06-04T10:07:31.021Z,26.37
2023-06-04T10:08:31.033Z,26.64
2023-06-04T10:09:33.314Z,26.42
2023-06-04T10:10:31.119Z,26.21
2023-06-04T10:11:31.106Z,25.26
2023-06-04T10:12:31.120Z,25.45
2023-06-04T10:13:31.175Z,25.95
2023-06-04T10:14:31.204Z,26.71
2023-06-04T10:15:31.245Z,27.32
2023-06-04T10:16:34.688Z,27.55
2023-06-04T10:17:31.303Z,27.33
2023-06-04T10:18:31.269Z,27.25
2023-06-04T10:19:31.286Z,27.21
2023-06-04T10:20:31.256Z,27.34
2023-06-04T10:21:31.258Z,27.46
2023-06-04T10:22:31.261Z,27.01
2023-06-04T10:23:31.294Z,25.57
2023-06-04T10:24:31.215Z,25.93
2023-06-04T10:25:31.226Z,26.71
2023-06-04T10:26:31.206Z,27.32
2023-06-04T10:27:31.220Z,27.87
2023-06-04T10:28:31.178Z,28.20
2023-06-04T10:29:31.200Z,28.34
2023-06-04T10:30:31.184Z,28.49
2023-06-04T10:31:31.267Z,28.21
2023-06-04T10:32:31.201Z,28.17
2023-06-04T10:33:31.124Z,27.44
2023-06-04T10:34:31.178Z,27.03
2023-06-04T10:35:31.151Z,27.52
2023-06-04T10:36:31.145Z,27.86
2023-06-04T10:37:31.156Z,28.07
2023-06-04T10:38:31.102Z,28.52
2023-06-04T10:39:31.170Z,28.90
2023-06-04T10:40:31.120Z,29.19
2023-06-04T10:41:31.117Z,29.30
2023-06-04T10:42:31.104Z,29.56
2023-06-04T10:43:31.068Z,29.80
2023-06-04T10:44:31.087Z,29.57
2023-06-04T10:45:31.083Z,29.73
2023-06-04T10:46:31.070Z,29.78
2023-06-04T10:47:31.108Z,29.88
2023-06-04T10:48:31.077Z,29.96
2023-06-04T10:49:31.133Z,29.42
2023-06-04T10:50:31.005Z,28.30
2023-06-04T10:51:31.017Z,27.41
2023-06-04T10:52:31.024Z,27.95
2023-06-04T10:53:30.989Z,28.39
2023-06-04T10:54:31.013Z,28.82
2023-06-04T10:55:30.985Z,29.13
2023-06-04T10:56:30.972Z,29.48
2023-06-04T10:57:30.980Z,29.66
2023-06-04T10:58:30.985Z,29.86
2023-06-04T10:59:30.978Z,29.93
2023-06-04T11:00:30.959Z,29.53
2023-06-04T11:01:31.002Z,29.36
2023-06-04T11:02:30.989Z,28.93
2023-06-04T11:03:31.062Z,27.64
2023-06-04T11:04:31.027Z,27.97
2023-06-04T11:05:31.143Z,28.36
2023-06-04T11:06:31.152Z,28.34
2023-06-04T11:07:31.200Z,28.66
2023-06-04T11:08:31.230Z,28.72
2023-06-04T11:09:32.241Z,28.20
2023-06-04T11:10:31.338Z,28.20
2023-06-04T11:11:31.289Z,28.36
2023-06-04T11:12:31.289Z,28.65
2023-06-04T11:13:31.355Z,28.87
2023-06-04T11:14:31.365Z,28.90
2023-06-04T11:15:31.404Z,28.55
2023-06-04T11:16:31.434Z,27.97
2023-06-04T11:17:31.542Z,27.93
2023-06-04T11:18:31.525Z,28.18
2023-06-04T11:19:31.484Z,28.45
2023-06-04T11:20:31.536Z,28.40
2023-06-04T11:21:31.599Z,28.18
2023-06-04T11:22:31.618Z,28.31
2023-06-04T11:23:31.681Z,27.65
2023-06-04T11:24:31.661Z,27.45
2023-06-04T11:25:31.724Z,26.85
2023-06-04T11:26:31.774Z,27.04
2023-06-04T11:27:36.857Z,26.63
2023-06-04T11:28:32.818Z,26.44
2023-06-04T11:29:31.803Z,26.99
2023-06-04T11:30:31.782Z,26.37
2023-06-04T11:31:31.842Z,25.71
2023-06-04T11:32:31.858Z,25.38
2023-06-04T11:33:31.797Z,25.33
2023-06-04T11:34:31.817Z,25.16
2023-06-04T11:35:31.796Z,25.34
2023-06-04T11:36:31.783Z,25.89
2023-06-04T11:37:31.825Z,26.21
2023-06-04T11:38:31.717Z,26.30
2023-06-04T11:39:31.721Z,26.58
2023-06-04T11:40:31.733Z,26.92
2023-06-04T11:41:31.750Z,27.03
2023-06-04T11:42:31.698Z,26.89
2023-06-04T11:43:31.693Z,26.82
2023-06-04T11:44:31.776Z,25.17
2023-06-04T11:45:31.836Z,25.06
2023-06-04T11:46:31.777Z,25.13
2023-06-04T11:47:31.923Z,25.43
2023-06-04T11:48:31.957Z,25.79
2023-06-04T11:49:31.865Z,26.12
2023-06-04T11:50:31.946Z,26.45
2023-06-04T11:51:32.010Z,26.76
2023-06-04T11:52:32.033Z,26.42
2023-06-04T11:53:32.066Z,25.81
2023-06-04T11:54:32.141Z,25.49
2023-06-04T11:55:32.159Z,25.96
2023-06-04T11:56:32.151Z,26.17
2023-06-04T11:57:32.256Z,25.16
2023-06-04T11:58:32.200Z,25.36
2023-06-04T11:59:32.277Z,25.87
2023-06-04T12:00:32.287Z,26.36
2023-06-04T12:01:32.262Z,26.67
2023-06-04T12:02:32.330Z,27.00
2023-06-04T12:03:32.282Z,26.77
2023-06-04T12:04:32.306Z,25.77
2023-06-04T12:05:32.465Z,24.21
2023-06-04T12:06:32.363Z,24.32
2023-06-04T12:07:32.396Z,24.31
2023-06-04T12:08:32.412Z,24.66
2023-06-04T12:09:32.524Z,24.57
2023-06-04T12:10:32.513Z,24.74
2023-06-04T12:11:32.634Z,24.79
2023-06-04T12:12:32.614Z,24.98
2023-06-04T12:13:32.644Z,24.52
2023-06-04T12:14:32.724Z,24.64
2023-06-04T12:15:32.689Z,24.87
2023-06-04T12:16:32.738Z,25.36
2023-06-04T12:17:32.828Z,25.70
2023-06-04T12:18:32.815Z,25.73
2023-06-04T12:19:32.822Z,25.89
2023-06-04T12:20:32.867Z,26.28
2023-06-04T12:21:32.885Z,26.21
2023-06-04T12:22:32.888Z,26.40
2023-06-04T12:23:32.938Z,26.11
2023-06-04T12:24:32.921Z,26.52
2023-06-04T12:25:33.010Z,26.85
2023-06-04T12:26:33.032Z,27.19
2023-06-04T12:27:33.076Z,27.48
2023-06-04T12:28:33.084Z,27.79
2023-06-04T12:29:33.068Z,27.91
2023-06-04T12:30:33.151Z,28.12
2023-06-04T12:31:33.331Z,28.21
2023-06-04T12:32:33.241Z,28.25
2023-06-04T12:33:33.247Z,28.36
2023-06-04T12:34:33.269Z,28.34
2023-06-04T12:35:33.280Z,27.45
2023-06-04T12:36:33.292Z,27.20
2023-06-04T12:37:33.284Z,27.42
2023-06-04T12:38:33.363Z,27.65
2023-06-04T12:39:33.373Z,26.44
2023-06-04T12:40:33.422Z,26.75
2023-06-04T12:41:33.485Z,27.00
2023-06-04T12:42:33.492Z,26.50
2023-06-04T12:43:33.533Z,25.82
2023-06-04T12:44:35.697Z,25.94
2023-06-04T12:45:33.718Z,26.18
2023-06-04T12:46:33.763Z,26.01
2023-06-04T12:47:33.826Z,25.56
2023-06-04T12:48:33.812Z,25.35
2023-06-04T12:49:33.858Z,25.56
2023-06-04T12:50:33.876Z,25.62
2023-06-04T12:51:33.924Z,25.85
2023-06-04T12:52:33.972Z,25.37
2023-06-04T12:53:34.016Z,25.62